In Rescue
 
Open Full Screen Window  High Contrast Mode
Wind Gusting 00 knots
06
July 24, 2024 4:51 PM CDT
Weather Information
Wind Direction
  130 °
Wind Speed
  06 kt (7 mph)
Wind Gust
  00 kt (0 mph)
Altimeter
30.19 in
Visibility
10 SM
Temperature
25° C
77° F
Dewpoint
13° C
55° F
Humidity
47%
1hr Rain Fall
00.00 in.
24hr Rain Fall
00.07 in.
Sky Condition
Scattered @ 4,700 ft
VFR

METAR KLXL 242151Z AUTO 13006KT 10SM SCT047 25/13 A3019 RMK AO2

FAA Disclaimer: The data displayed is for advisory purposes only and is not to be used for flight planning or operations.